Time;durP1;ratioP1;P1;durP2;ratioP2;P2;SDS_P1;SDS_P2;PMS_P1;PMS_P2;Temp;Humidity;BMP_temperature;BMP_pressure;BME280_temperature;BME280_humidity;BME280_pressure;Samples;Min_cycle;Max_cycle;Signal;HPM_P1;HPM_P2
2022/05/27 00:01:11;;;;;;;0.00;0.00;;;26.20;43.20;;;;;;4969562;28;20137;-52
2022/05/27 00:03:38;;;;;;;1.75;0.00;;;26.20;43.20;;;;;;4972851;28;20042;-52
2022/05/27 00:06:05;;;;;;;0.00;0.00;;;26.20;43.30;;;;;;4970505;28;20135;-51
2022/05/27 00:08:33;;;;;;;0.25;0.00;;;26.20;43.20;;;;;;4972402;28;20064;-50
2022/05/27 00:11:01;;;;;;;1.00;0.00;;;26.10;43.10;;;;;;4971828;28;20046;-53
2022/05/27 00:13:29;;;;;;;0.00;0.00;;;26.20;43.30;;;;;;4971422;28;20051;-51
2022/05/27 00:15:57;;;;;;;0.10;0.10;;;26.10;43.20;;;;;;4970443;28;20070;-53
2022/05/27 00:18:25;;;;;;;0.63;0.00;;;26.10;43.10;;;;;;4969828;28;20045;-52
2022/05/27 00:20:52;;;;;;;0.00;0.00;;;26.10;43.10;;;;;;4970936;28;20890;-53
2022/05/27 00:23:20;;;;;;;0.28;0.28;;;26.10;43.10;;;;;;4970493;28;20046;-52
2022/05/27 00:25:47;;;;;;;0.00;0.00;;;26.10;43.10;;;;;;4971223;28;20198;-52
2022/05/27 00:28:14;;;;;;;0.00;0.00;;;26.10;43.10;;;;;;4972395;28;20039;-54
2022/05/27 00:30:42;;;;;;;0.55;0.10;;;26.10;43.10;;;;;;4970578;28;20058;-50
2022/05/27 00:33:11;;;;;;;0.10;0.00;;;26.10;43.10;;;;;;4951670;28;20146;-51
2022/05/27 00:35:39;;;;;;;0.08;0.08;;;26.10;43.10;;;;;;4953517;28;20142;-51
2022/05/27 00:38:07;;;;;;;0.10;0.10;;;26.10;43.10;;;;;;4970470;28;20069;-50
2022/05/27 00:40:39;;;;;;;0.13;0.00;;;26.10;43.10;;;;;;4972295;28;20068;-53
2022/05/27 00:43:07;;;;;;;0.08;0.08;;;26.10;43.10;;;;;;4970628;28;20046;-53
2022/05/27 00:45:37;;;;;;;0.10;0.00;;;26.10;43.10;;;;;;4969229;28;20423;-54
2022/05/27 00:48:07;;;;;;;0.30;0.00;;;26.10;43.10;;;;;;4964629;28;20042;-50
2022/05/27 00:50:40;;;;;;;0.00;0.00;;;26.10;43.10;;;;;;4963972;28;20098;-53
2022/05/27 00:53:10;;;;;;;0.00;0.00;;;26.10;43.10;;;;;;4970241;28;20047;-53
2022/05/27 00:55:44;;;;;;;1.35;0.00;;;26.10;43.10;;;;;;4969930;28;20515;-56
2022/05/27 00:58:14;;;;;;;0.20;0.00;;;26.00;43.10;;;;;;4971540;28;20579;-55
2022/05/27 01:00:41;;;;;;;0.22;0.15;;;26.00;43.10;;;;;;4971212;28;20539;-51
2022/05/27 01:03:13;;;;;;;0.10;0.00;;;26.00;43.10;;;;;;4951616;28;20045;-53
2022/05/27 01:05:44;;;;;;;0.10;0.00;;;26.00;43.10;;;;;;4968920;28;20042;-49
2022/05/27 01:08:13;;;;;;;0.00;0.00;;;26.00;43.10;;;;;;4969865;28;20465;-51
2022/05/27 01:10:51;;;;;;;0.35;0.10;;;26.00;43.10;;;;;;4952684;28;20459;-52
2022/05/27 01:13:30;;;;;;;0.75;0.10;;;26.00;43.10;;;;;;4968841;28;20061;-52
2022/05/27 01:16:11;;;;;;;0.20;0.00;;;26.00;43.10;;;;;;4968871;28;20562;-54
2022/05/27 01:22:13;;;;;;;0.52;0.00;;;26.00;43.10;;;;;;4968787;28;20031;-52
2022/05/27 01:25:05;;;;;;;0.15;0.03;;;26.00;43.10;;;;;;4948741;28;20079;-51
2022/05/27 01:28:03;;;;;;;0.03;0.00;;;25.90;43.10;;;;;;4968263;28;20074;-52
2022/05/27 01:30:35;;;;;;;0.22;0.00;;;25.90;43.10;;;;;;4965484;28;20086;-47
2022/05/27 01:33:24;;;;;;;0.45;0.10;;;25.90;43.20;;;;;;4950738;28;20098;-49
2022/05/27 01:36:02;;;;;;;0.65;0.00;;;25.90;43.10;;;;;;4963238;28;20045;-53
2022/05/27 01:38:35;;;;;;;0.40;0.10;;;25.80;43.10;;;;;;4968388;28;20156;-48
2022/05/27 01:41:10;;;;;;;0.20;0.00;;;25.90;43.20;;;;;;4970367;28;20133;-51
2022/05/27 01:43:43;;;;;;;0.20;0.00;;;25.90;43.20;;;;;;4969878;28;20053;-52
2022/05/27 01:46:16;;;;;;;0.00;0.00;;;25.80;43.80;;;;;;4967963;28;20133;-50
2022/05/27 01:49:00;;;;;;;0.20;0.00;;;25.80;43.20;;;;;;4968224;28;20054;-52
2022/05/27 01:51:32;;;;;;;1.08;0.05;;;25.80;43.20;;;;;;4963134;28;20511;-52
2022/05/27 01:54:05;;;;;;;0.20;0.10;;;25.80;43.20;;;;;;4968226;28;20046;-54
2022/05/27 01:56:39;;;;;;;0.65;0.00;;;25.80;43.10;;;;;;4964294;28;20554;-54
2022/05/27 01:59:10;;;;;;;0.17;0.00;;;25.80;43.20;;;;;;4968103;28;20098;-52
2022/05/27 02:01:42;;;;;;;0.10;0.10;;;25.80;43.10;;;;;;4968320;28;20051;-51
2022/05/27 02:04:16;;;;;;;0.00;0.00;;;25.80;43.20;;;;;;4967970;28;20042;-55
2022/05/27 02:06:45;;;;;;;1.33;0.10;;;25.80;43.10;;;;;;4968525;28;20114;-54
2022/05/27 02:09:19;;;;;;;0.10;0.00;;;25.80;43.20;;;;;;4968587;28;20043;-54
2022/05/27 02:11:49;;;;;;;0.00;0.00;;;25.80;43.20;;;;;;4967828;28;20153;-53
2022/05/27 02:14:20;;;;;;;0.00;0.00;;;25.70;43.20;;;;;;4968376;28;20042;-54
2022/05/27 02:16:52;;;;;;;0.10;0.08;;;25.70;43.20;;;;;;4969308;28;20078;-55
2022/05/27 02:19:25;;;;;;;0.10;0.00;;;25.70;43.20;;;;;;4966403;28;20039;-54
2022/05/27 02:21:55;;;;;;;0.00;0.00;;;25.70;43.20;;;;;;4963039;28;20043;-54
2022/05/27 02:24:28;;;;;;;1.08;0.00;;;25.70;43.30;;;;;;4967669;28;20043;-54
2022/05/27 02:27:00;;;;;;;0.13;0.10;;;25.70;43.80;;;;;;4967881;28;20081;-52
2022/05/27 02:29:31;;;;;;;0.10;0.08;;;25.70;43.20;;;;;;4967383;28;20622;-56
2022/05/27 02:32:05;;;;;;;0.22;0.00;;;25.70;43.20;;;;;;4969434;28;20051;-50
2022/05/27 02:37:26;;;;;;;0.00;0.00;;;25.70;43.20;;;;;;4967672;28;20055;-51
2022/05/27 02:39:54;;;;;;;0.20;0.00;;;25.70;43.20;;;;;;4968274;28;20129;-54
2022/05/27 02:42:32;;;;;;;0.80;0.10;;;25.70;43.20;;;;;;4967778;28;20067;-53
2022/05/27 02:45:10;;;;;;;0.00;0.00;;;25.70;43.20;;;;;;4967165;28;20129;-52
2022/05/27 02:47:45;;;;;;;0.82;0.10;;;25.70;43.20;;;;;;4967527;28;20062;-50
2022/05/27 02:50:19;;;;;;;0.10;0.10;;;25.70;43.20;;;;;;4967744;28;20042;-52
2022/05/27 02:52:55;;;;;;;2.15;0.20;;;25.70;43.20;;;;;;4969585;28;20501;-51
2022/05/27 02:55:29;;;;;;;1.20;0.08;;;25.70;43.20;;;;;;4970715;28;20134;-51
2022/05/27 02:58:02;;;;;;;0.65;0.20;;;25.70;43.20;;;;;;4968082;28;20047;-52
2022/05/27 03:00:33;;;;;;;0.10;0.03;;;25.70;43.30;;;;;;4962055;28;20182;-51
2022/05/27 03:03:01;;;;;;;0.08;0.00;;;25.70;43.20;;;;;;4967630;28;20126;-50
2022/05/27 03:05:35;;;;;;;0.00;0.00;;;25.70;43.80;;;;;;4967659;28;20042;-55
2022/05/27 03:08:15;;;;;;;0.10;0.00;;;25.70;43.20;;;;;;4965398;28;20130;-49
2022/05/27 03:10:53;;;;;;;0.08;0.03;;;25.70;43.20;;;;;;4969402;28;20074;-54
2022/05/27 03:13:36;;;;;;;0.30;0.00;;;25.70;43.20;;;;;;4970414;28;20070;-54
2022/05/27 03:16:13;;;;;;;0.10;0.08;;;25.70;43.30;;;;;;4970697;28;20070;-51
2022/05/27 03:19:04;;;;;;;0.15;0.15;;;25.70;43.20;;;;;;4970772;28;20141;-53
2022/05/27 03:21:36;;;;;;;0.25;0.00;;;25.70;43.20;;;;;;4970799;28;20090;-52
2022/05/27 03:24:16;;;;;;;0.05;0.00;;;25.70;43.30;;;;;;4970884;28;20130;-53
2022/05/27 03:26:52;;;;;;;1.25;0.10;;;25.70;43.20;;;;;;4964982;28;20566;-50
2022/05/27 03:29:30;;;;;;;0.30;0.10;;;25.70;43.20;;;;;;4968284;28;20431;-52
2022/05/27 03:32:03;;;;;;;0.32;0.00;;;25.70;43.10;;;;;;4972596;28;20053;-52
2022/05/27 03:34:37;;;;;;;0.90;0.10;;;25.70;43.10;;;;;;4954193;28;20475;-50
2022/05/27 03:37:12;;;;;;;0.22;0.00;;;25.70;43.10;;;;;;4970554;28;20122;-49
2022/05/27 03:39:45;;;;;;;0.55;0.00;;;25.70;43.10;;;;;;4970737;28;20141;-51
2022/05/27 03:42:13;;;;;;;0.85;0.00;;;25.60;43.10;;;;;;4970330;28;20138;-55
2022/05/27 03:44:50;;;;;;;0.82;0.52;;;25.60;43.10;;;;;;4970583;28;20066;-53
2022/05/27 03:47:18;;;;;;;1.55;0.03;;;25.60;43.10;;;;;;4970968;28;20077;-49
2022/05/27 03:49:46;;;;;;;0.32;0.10;;;25.60;43.10;;;;;;4972327;28;20035;-53
2022/05/27 03:52:18;;;;;;;0.10;0.00;;;25.70;43.10;;;;;;4970413;28;20146;-48
2022/05/27 03:54:45;;;;;;;0.20;0.00;;;25.60;43.10;;;;;;4970236;28;20070;-51
2022/05/27 03:57:12;;;;;;;0.05;0.00;;;25.60;43.00;;;;;;4969886;28;20053;-53
2022/05/27 03:59:39;;;;;;;0.00;0.00;;;25.60;43.00;;;;;;4969984;28;20055;-49
2022/05/27 04:02:08;;;;;;;0.20;0.00;;;25.60;43.00;;;;;;4972438;28;20051;-51
2022/05/27 04:04:35;;;;;;;0.10;0.10;;;25.60;43.00;;;;;;4971358;28;20526;-53
2022/05/27 04:07:04;;;;;;;0.25;0.10;;;25.60;43.00;;;;;;4970053;28;20057;-50
2022/05/27 04:09:33;;;;;;;0.10;0.03;;;25.60;43.00;;;;;;4970137;28;20726;-53
2022/05/27 04:12:00;;;;;;;0.35;0.10;;;25.60;43.00;;;;;;4952792;28;20043;-52
2022/05/27 04:14:27;;;;;;;0.80;0.00;;;25.60;42.90;;;;;;4969943;28;20085;-51
2022/05/27 04:17:27;;;;;;;0.85;0.00;;;25.60;42.90;;;;;;4971298;28;20496;-49
2022/05/27 04:19:43;;;;;;;0.32;0.00;;;25.60;42.90;;;;;;4970950;28;20046;-49
2022/05/27 04:22:11;;;;;;;0.32;0.10;;;25.60;43.00;;;;;;4968709;28;20053;-51
2022/05/27 04:24:39;;;;;;;0.93;0.10;;;25.60;43.00;;;;;;4969426;28;20047;-53
2022/05/27 04:27:11;;;;;;;0.03;0.00;;;25.60;42.90;;;;;;4969645;28;20038;-49
2022/05/27 04:29:42;;;;;;;0.05;0.00;;;25.60;42.90;;;;;;4967052;28;20114;-51
2022/05/27 04:32:10;;;;;;;0.85;0.10;;;25.60;43.00;;;;;;4970226;28;20138;-53
2022/05/27 04:34:37;;;;;;;0.10;0.00;;;25.60;43.00;;;;;;4970124;28;20599;-52
2022/05/27 04:37:05;;;;;;;0.10;0.03;;;25.60;43.00;;;;;;4969279;28;20057;-55
2022/05/27 04:39:34;;;;;;;0.35;0.00;;;25.60;43.00;;;;;;4969377;28;20130;-51
2022/05/27 04:42:01;;;;;;;0.60;0.00;;;25.60;42.90;;;;;;4969979;28;20634;-49
2022/05/27 04:44:28;;;;;;;0.50;0.20;;;25.60;42.90;;;;;;4969194;28;20046;-49
2022/05/27 04:46:55;;;;;;;1.00;0.10;;;25.60;42.90;;;;;;4970928;28;20042;-49
2022/05/27 04:52:08;;;;;;;0.10;0.10;;;25.60;42.90;;;;;;4969338;28;20046;-53
2022/05/27 04:54:37;;;;;;;0.63;0.00;;;25.60;42.90;;;;;;4968462;28;20130;-51
2022/05/27 04:57:04;;;;;;;1.10;0.30;;;25.60;42.90;;;;;;4968897;28;20047;-50
2022/05/27 04:59:35;;;;;;;0.00;0.00;;;25.60;42.80;;;;;;4969148;28;20054;-51
2022/05/27 05:02:04;;;;;;;0.10;0.00;;;25.60;42.80;;;;;;4966920;28;20050;-53
2022/05/27 05:04:31;;;;;;;0.47;0.10;;;25.60;42.90;;;;;;4969634;28;20046;-48
2022/05/27 05:07:02;;;;;;;0.45;0.15;;;25.60;42.80;;;;;;4968978;28;20067;-52
2022/05/27 05:09:29;;;;;;;0.63;0.20;;;25.60;42.80;;;;;;4962630;28;20492;-52
2022/05/27 05:11:58;;;;;;;0.08;0.08;;;25.60;42.80;;;;;;4968916;28;20034;-53
2022/05/27 05:14:25;;;;;;;0.10;0.00;;;25.60;42.80;;;;;;4967985;28;20170;-50
2022/05/27 05:16:52;;;;;;;0.05;0.00;;;25.60;42.80;;;;;;4969461;28;20046;-50
2022/05/27 05:19:19;;;;;;;0.28;0.00;;;25.60;42.80;;;;;;4967968;28;20046;-52
2022/05/27 05:21:47;;;;;;;0.20;0.13;;;25.60;42.80;;;;;;4962969;28;20757;-51
2022/05/27 05:24:14;;;;;;;0.10;0.00;;;25.60;42.80;;;;;;4968510;28;20395;-54
2022/05/27 05:26:41;;;;;;;0.28;0.13;;;25.60;42.80;;;;;;4969015;28;20544;-49
2022/05/27 05:29:09;;;;;;;0.10;0.00;;;25.60;42.80;;;;;;4969415;28;20129;-49
2022/05/27 05:31:37;;;;;;;0.00;0.00;;;25.60;42.80;;;;;;4969934;28;20551;-51
2022/05/27 05:34:04;;;;;;;0.10;0.00;;;25.60;42.80;;;;;;4968313;28;20125;-50
2022/05/27 05:36:31;;;;;;;1.75;0.00;;;25.60;42.70;;;;;;4968606;28;20051;-50
2022/05/27 05:38:59;;;;;;;0.10;0.00;;;25.60;42.70;;;;;;4968177;28;20121;-49
2022/05/27 05:41:27;;;;;;;0.10;0.00;;;25.60;42.80;;;;;;4968580;28;20430;-49
2022/05/27 05:43:54;;;;;;;0.68;0.10;;;25.60;42.70;;;;;;4969978;28;20055;-50
2022/05/27 05:46:23;;;;;;;0.38;0.10;;;25.60;42.70;;;;;;4968243;28;20216;-53
2022/05/27 05:48:50;;;;;;;1.48;0.10;;;25.60;42.80;;;;;;4968626;28;20101;-49
2022/05/27 05:51:18;;;;;;;1.85;0.30;;;25.60;42.70;;;;;;4968249;28;20039;-51
2022/05/27 05:53:45;;;;;;;1.10;0.05;;;25.60;42.70;;;;;;4967874;28;20113;-51
2022/05/27 05:56:12;;;;;;;0.52;0.10;;;25.60;42.70;;;;;;4968389;28;20132;-52
2022/05/27 05:58:39;;;;;;;0.93;0.10;;;25.60;42.70;;;;;;4969360;28;20045;-50
2022/05/27 06:01:07;;;;;;;0.20;0.20;;;25.60;42.70;;;;;;4968328;28;20063;-52
2022/05/27 06:03:36;;;;;;;0.75;0.10;;;25.60;42.70;;;;;;4968842;28;20053;-51
2022/05/27 06:06:03;;;;;;;0.20;0.10;;;25.60;42.70;;;;;;4967973;28;20038;-54
2022/05/27 06:08:31;;;;;;;0.03;0.03;;;25.60;42.70;;;;;;4951430;28;20047;-48
2022/05/27 06:11:00;;;;;;;1.48;0.10;;;25.60;42.70;;;;;;4969467;28;20049;-51
2022/05/27 06:13:28;;;;;;;0.10;0.10;;;25.70;42.70;;;;;;4967647;28;20076;-53
2022/05/27 06:15:56;;;;;;;0.10;0.10;;;25.60;42.70;;;;;;4968226;28;20047;-51
2022/05/27 06:18:23;;;;;;;0.10;0.10;;;25.60;42.60;;;;;;4969236;28;20058;-52
2022/05/27 06:20:51;;;;;;;0.20;0.10;;;25.60;42.60;;;;;;4969328;28;20123;-52
2022/05/27 06:23:18;;;;;;;1.98;0.10;;;25.60;42.60;;;;;;4969197;28;20066;-50
2022/05/27 06:25:46;;;;;;;0.70;0.10;;;25.70;42.70;;;;;;4969553;28;20042;-50
2022/05/27 06:36:28;;;;;;;1.48;0.10;;;25.60;42.60;;;;;;4967116;28;20047;-48
2022/05/27 06:38:55;;;;;;;0.85;0.10;;;25.70;42.70;;;;;;4967938;28;20039;-52
2022/05/27 06:41:22;;;;;;;0.77;0.10;;;25.70;42.70;;;;;;4967664;28;20129;-53
2022/05/27 06:43:49;;;;;;;0.10;0.10;;;25.60;42.60;;;;;;4969053;28;20043;-54
2022/05/27 06:46:17;;;;;;;0.10;0.10;;;25.70;42.70;;;;;;4969223;28;20054;-51
2022/05/27 06:48:44;;;;;;;0.15;0.10;;;25.70;42.60;;;;;;4970870;28;20039;-51
2022/05/27 06:51:11;;;;;;;0.38;0.38;;;25.70;42.60;;;;;;4971026;28;20080;-50
2022/05/27 06:53:40;;;;;;;0.10;0.10;;;25.70;42.60;;;;;;4971775;28;20042;-52
2022/05/27 06:56:10;;;;;;;0.45;0.17;;;25.70;42.60;;;;;;4972752;28;20042;-53
2022/05/27 06:58:37;;;;;;;0.20;0.10;;;25.70;42.60;;;;;;4971749;28;20047;-53
2022/05/27 07:01:04;;;;;;;0.35;0.20;;;25.70;42.60;;;;;;4971562;28;20066;-54
2022/05/27 07:03:32;;;;;;;0.38;0.10;;;25.70;42.60;;;;;;4971390;28;20842;-55
2022/05/27 07:06:00;;;;;;;0.77;0.38;;;25.70;42.60;;;;;;4971291;28;20082;-55
2022/05/27 07:08:27;;;;;;;0.10;0.10;;;25.70;42.60;;;;;;4971211;28;20042;-55
2022/05/27 07:10:55;;;;;;;0.40;0.40;;;25.70;42.60;;;;;;4972767;28;20125;-53
2022/05/27 07:13:22;;;;;;;0.13;0.10;;;25.70;42.50;;;;;;4970740;28;20050;-53
2022/05/27 07:15:50;;;;;;;0.88;0.10;;;25.70;42.50;;;;;;4970823;28;20122;-54
2022/05/27 07:18:17;;;;;;;0.40;0.20;;;25.70;42.50;;;;;;4970637;28;20697;-52
2022/05/27 07:20:44;;;;;;;0.10;0.10;;;25.70;42.50;;;;;;4953140;28;20422;-53
2022/05/27 07:23:11;;;;;;;0.45;0.10;;;25.70;42.60;;;;;;4971343;28;20122;-51
2022/05/27 07:25:40;;;;;;;0.20;0.20;;;25.70;42.50;;;;;;4971237;28;20503;-49
2022/05/27 07:28:11;;;;;;;0.10;0.10;;;25.70;42.50;;;;;;4970730;28;20502;-51
2022/05/27 07:30:38;;;;;;;0.30;0.10;;;25.70;42.50;;;;;;4970659;28;20050;-52
2022/05/27 07:33:06;;;;;;;1.08;0.20;;;25.70;43.10;;;;;;4970919;28;20043;-57
2022/05/27 07:35:33;;;;;;;0.30;0.10;;;25.70;42.50;;;;;;4969965;28;20498;-52
2022/05/27 07:38:00;;;;;;;1.80;0.15;;;25.80;42.50;;;;;;4972013;28;20047;-51
2022/05/27 07:40:27;;;;;;;0.10;0.10;;;25.80;42.50;;;;;;4970368;28;20051;-54
2022/05/27 07:42:54;;;;;;;0.45;0.25;;;25.80;42.40;;;;;;4970424;28;20053;-54
2022/05/27 07:45:27;;;;;;;0.25;0.20;;;25.80;42.40;;;;;;4970352;28;20463;-53
2022/05/27 07:47:54;;;;;;;1.45;0.30;;;25.80;42.40;;;;;;4970491;28;20514;-51
2022/05/27 07:50:22;;;;;;;0.17;0.10;;;25.80;42.40;;;;;;4970368;28;20419;-50
2022/05/27 07:52:49;;;;;;;0.60;0.10;;;25.80;42.30;;;;;;4972332;28;20546;-50
2022/05/27 07:55:17;;;;;;;0.10;0.10;;;25.90;42.30;;;;;;4971090;28;20078;-51
2022/05/27 07:57:45;;;;;;;1.55;0.10;;;25.90;42.30;;;;;;4970372;28;20512;-52
2022/05/27 08:00:17;;;;;;;0.38;0.10;;;25.90;42.20;;;;;;4970246;28;20075;-49
2022/05/27 08:02:46;;;;;;;2.42;0.20;;;25.90;42.20;;;;;;4969962;28;20039;-50
2022/05/27 08:05:15;;;;;;;1.50;0.10;;;25.90;42.20;;;;;;4970237;28;20054;-50
2022/05/27 08:07:42;;;;;;;2.15;0.20;;;26.00;42.20;;;;;;4971505;28;20102;-53
2022/05/27 08:10:11;;;;;;;0.25;0.10;;;26.00;42.20;;;;;;4970025;28;20380;-52
2022/05/27 08:12:40;;;;;;;0.35;0.22;;;26.00;42.20;;;;;;4970089;28;20062;-52
2022/05/27 08:15:09;;;;;;;0.57;0.20;;;26.00;42.20;;;;;;4969788;28;20130;-52
2022/05/27 08:17:36;;;;;;;0.35;0.10;;;26.00;42.80;;;;;;4969669;28;20047;-52
2022/05/27 08:20:06;;;;;;;0.95;0.20;;;26.00;42.10;;;;;;4970869;28;20046;-53
2022/05/27 08:22:34;;;;;;;0.20;0.20;;;26.00;42.10;;;;;;4971007;28;20057;-49
2022/05/27 08:25:01;;;;;;;0.10;0.10;;;26.00;42.00;;;;;;4969776;28;20511;-55
2022/05/27 08:27:28;;;;;;;0.10;0.10;;;26.00;42.00;;;;;;4969649;28;20097;-51
2022/05/27 08:29:56;;;;;;;0.85;0.32;;;26.00;42.00;;;;;;4969953;28;20045;-53
2022/05/27 08:32:23;;;;;;;0.20;0.10;;;26.00;42.00;;;;;;4969138;28;20070;-51
2022/05/27 08:40:31;;;;;;;0.30;0.10;;;26.00;42.00;;;;;;4968672;28;20050;-55
2022/05/27 08:43:03;;;;;;;2.13;0.10;;;26.00;42.00;;;;;;4969580;28;20053;-57
2022/05/27 08:45:37;;;;;;;0.73;0.10;;;26.00;42.00;;;;;;4969460;28;20512;-52
2022/05/27 08:48:07;;;;;;;0.20;0.10;;;26.00;42.00;;;;;;4969443;28;20118;-51
2022/05/27 08:50:39;;;;;;;1.48;0.15;;;26.00;42.00;;;;;;4969654;28;20035;-55
2022/05/27 08:53:15;;;;;;;0.30;0.13;;;26.00;42.00;;;;;;4970792;28;20507;-50
2022/05/27 09:01:23;;;;;;;0.28;0.10;;;26.00;42.00;;;;;;4968981;28;20055;-53
2022/05/27 09:03:56;;;;;;;0.60;0.10;;;26.00;42.00;;;;;;4968991;28;20039;-51
2022/05/27 09:06:34;;;;;;;0.22;0.22;;;26.10;42.00;;;;;;4968953;28;20038;-52
2022/05/27 09:09:13;;;;;;;0.10;0.10;;;26.10;42.00;;;;;;4968346;28;20588;-49
2022/05/27 09:11:49;;;;;;;1.75;0.10;;;26.10;42.00;;;;;;4966913;28;20507;-50
2022/05/27 09:14:21;;;;;;;1.13;0.50;;;26.10;42.00;;;;;;4969195;28;20082;-50
2022/05/27 09:16:57;;;;;;;0.35;0.22;;;26.10;42.00;;;;;;4970000;28;20058;-53
2022/05/27 09:19:29;;;;;;;0.80;0.10;;;26.10;42.00;;;;;;4968797;28;20039;-51
2022/05/27 09:22:07;;;;;;;0.77;0.20;;;26.10;42.00;;;;;;4964506;28;20075;-54
2022/05/27 09:24:47;;;;;;;0.10;0.10;;;26.10;42.00;;;;;;4969963;28;20117;-54
2022/05/27 09:27:20;;;;;;;0.85;0.20;;;26.10;42.00;;;;;;4970494;28;20086;-53
2022/05/27 09:29:57;;;;;;;0.90;0.30;;;26.10;42.00;;;;;;4968911;28;20090;-54
2022/05/27 09:32:31;;;;;;;0.82;0.20;;;26.10;42.00;;;;;;4969256;28;20366;-54
2022/05/27 09:35:07;;;;;;;0.10;0.10;;;26.10;42.10;;;;;;4970695;28;20046;-50
2022/05/27 09:37:39;;;;;;;0.20;0.10;;;26.10;42.10;;;;;;4969095;28;20043;-51
2022/05/27 09:40:16;;;;;;;0.52;0.10;;;26.00;42.00;;;;;;4968837;28;20049;-51
2022/05/27 09:42:47;;;;;;;0.30;0.10;;;26.10;42.10;;;;;;4969763;28;20507;-52
2022/05/27 09:45:14;;;;;;;0.55;0.17;;;26.10;42.10;;;;;;4969185;28;20117;-49
2022/05/27 09:47:41;;;;;;;0.15;0.10;;;26.00;42.10;;;;;;4969351;28;20061;-53
2022/05/27 09:50:21;;;;;;;0.10;0.10;;;26.00;42.10;;;;;;4969648;28;20055;-51
2022/05/27 09:52:51;;;;;;;1.48;0.17;;;26.10;42.10;;;;;;4968765;28;20129;-50
2022/05/27 09:55:26;;;;;;;0.20;0.20;;;26.00;42.10;;;;;;4969634;28;20048;-49
2022/05/27 09:57:57;;;;;;;0.40;0.10;;;26.10;42.20;;;;;;4969389;28;20047;-53
2022/05/27 10:00:39;;;;;;;0.22;0.20;;;26.10;42.20;;;;;;4969630;28;20146;-50
2022/05/27 10:03:36;;;;;;;0.35;0.10;;;26.10;42.10;;;;;;4965281;28;20093;-50
2022/05/27 10:06:07;;;;;;;0.50;0.22;;;26.10;42.10;;;;;;4890102;29;20202;-50
2022/05/27 10:08:43;;;;;;;0.55;0.10;;;26.10;42.20;;;;;;4874333;29;20066;-50
2022/05/27 10:11:19;;;;;;;0.88;0.30;;;26.10;42.20;;;;;;4888404;29;20108;-49
2022/05/27 10:13:48;;;;;;;0.10;0.10;;;26.10;42.20;;;;;;4908584;29;20108;-49
2022/05/27 10:16:23;;;;;;;0.20;0.20;;;26.10;42.20;;;;;;4907929;29;20131;-49
2022/05/27 10:19:06;;;;;;;0.20;0.20;;;26.10;42.10;;;;;;4908062;29;20059;-49
2022/05/27 10:21:49;;;;;;;0.32;0.10;;;26.20;42.20;;;;;;4907311;29;20671;-51
2022/05/27 10:24:19;;;;;;;0.65;0.10;;;26.20;42.20;;;;;;4907704;29;20052;-49
2022/05/27 10:27:05;;;;;;;0.32;0.32;;;26.20;42.20;;;;;;4908074;29;20048;-50
2022/05/27 10:29:34;;;;;;;0.20;0.10;;;26.20;42.20;;;;;;4907132;29;20056;-53
2022/05/27 10:32:02;;;;;;;0.10;0.10;;;26.30;42.20;;;;;;4910048;29;20047;-50
2022/05/27 10:34:41;;;;;;;0.30;0.20;;;26.30;42.10;;;;;;4907551;29;20529;-53
2022/05/27 10:37:17;;;;;;;0.10;0.10;;;26.30;42.00;;;;;;4907533;29;20052;-53
2022/05/27 10:39:58;;;;;;;0.85;0.10;;;26.40;42.10;;;;;;4907230;29;20056;-53
2022/05/27 10:42:34;;;;;;;1.65;0.10;;;26.40;42.00;;;;;;4946351;28;20062;-53
2022/05/27 10:45:15;;;;;;;0.20;0.10;;;26.50;42.00;;;;;;4962516;28;20042;-53
2022/05/27 10:48:10;;;;;;;0.73;0.20;;;26.50;42.00;;;;;;4964563;28;20428;-51
2022/05/27 10:50:43;;;;;;;0.35;0.10;;;26.50;41.90;;;;;;4961099;28;20046;-51
2022/05/27 10:53:25;;;;;;;0.43;0.25;;;26.50;41.90;;;;;;4968282;28;20454;-50
2022/05/27 10:56:03;;;;;;;1.10;0.10;;;26.50;41.80;;;;;;4967822;28;20070;-52
2022/05/27 11:04:46;;;;;;;1.30;0.25;;;26.50;41.80;;;;;;4965179;28;20513;-52
2022/05/27 11:07:27;;;;;;;0.30;0.20;;;26.50;41.80;;;;;;4967397;28;20496;-51
2022/05/27 11:10:09;;;;;;;0.40;0.10;;;26.50;41.80;;;;;;4967130;28;20046;-51
2022/05/27 11:15:48;;;;;;;1.00;0.20;;;26.60;41.80;;;;;;4963360;28;20039;-53
2022/05/27 11:18:31;;;;;;;0.40;0.40;;;26.50;41.70;;;;;;4967230;28;20713;-52
2022/05/27 11:21:16;;;;;;;0.10;0.10;;;26.60;41.70;;;;;;4967403;28;20069;-51
2022/05/27 11:24:15;;;;;;;0.52;0.05;;;26.60;41.70;;;;;;4962763;28;20039;-51
2022/05/27 11:26:52;;;;;;;0.15;0.10;;;26.60;41.70;;;;;;4966880;28;20043;-49
2022/05/27 11:29:36;;;;;;;0.13;0.10;;;26.60;41.70;;;;;;4965567;28;20042;-50
2022/05/27 11:32:17;;;;;;;0.10;0.10;;;26.60;41.70;;;;;;4967281;28;20160;-48
2022/05/27 11:34:54;;;;;;;0.55;0.10;;;26.70;41.80;;;;;;4972126;28;20596;-48
2022/05/27 11:37:40;;;;;;;0.10;0.10;;;26.70;41.80;;;;;;4970813;28;20458;-49
2022/05/27 11:40:38;;;;;;;0.10;0.10;;;26.70;41.70;;;;;;4970095;28;20591;-51
2022/05/27 11:43:22;;;;;;;0.30;0.10;;;26.70;41.70;;;;;;4970853;28;20071;-51
2022/05/27 11:46:05;;;;;;;0.20;0.10;;;26.70;41.70;;;;;;4970296;28;20511;-50
2022/05/27 11:48:44;;;;;;;0.10;0.10;;;26.70;41.70;;;;;;4970451;28;20089;-54
2022/05/27 11:51:27;;;;;;;1.00;0.10;;;26.70;41.70;;;;;;4970405;28;20341;-50
2022/05/27 11:54:24;;;;;;;0.10;0.10;;;26.70;41.60;;;;;;4970508;28;20042;-53
2022/05/27 11:57:04;;;;;;;0.10;0.10;;;26.80;41.70;;;;;;4967903;28;20098;-55
2022/05/27 11:59:35;;;;;;;0.10;0.10;;;26.70;41.60;;;;;;4970488;28;20551;-53
2022/05/27 12:02:11;;;;;;;0.63;0.10;;;26.70;41.70;;;;;;4972206;28;20114;-54
2022/05/27 12:04:45;;;;;;;1.05;0.10;;;26.70;41.60;;;;;;4970938;28;20086;-52
2022/05/27 12:07:22;;;;;;;0.15;0.10;;;26.70;41.60;;;;;;4970312;28;20054;-54
2022/05/27 12:09:56;;;;;;;0.20;0.10;;;26.80;41.70;;;;;;4969628;28;20137;-51
2022/05/27 12:12:28;;;;;;;1.35;0.10;;;26.70;41.60;;;;;;4970041;28;20047;-53
2022/05/27 12:15:01;;;;;;;0.10;0.10;;;26.80;41.70;;;;;;4970367;28;20145;-50
2022/05/27 12:17:36;;;;;;;2.17;0.10;;;26.80;41.70;;;;;;4970103;28;20519;-49
2022/05/27 12:20:06;;;;;;;0.10;0.05;;;26.80;41.60;;;;;;4970767;28;20046;-53
2022/05/27 12:22:35;;;;;;;0.05;0.03;;;26.80;41.70;;;;;;4970826;28;20459;-50
2022/05/27 12:25:05;;;;;;;0.38;0.00;;;26.80;41.70;;;;;;4969908;28;20515;-50
2022/05/27 12:27:34;;;;;;;0.63;0.43;;;26.80;41.60;;;;;;4969815;28;20058;-52
2022/05/27 12:30:03;;;;;;;0.30;0.10;;;26.80;41.60;;;;;;4952841;28;20503;-51
2022/05/27 12:32:31;;;;;;;0.10;0.10;;;26.80;41.70;;;;;;4969848;28;20058;-52
2022/05/27 12:35:20;;;;;;;1.63;0.10;;;26.80;41.70;;;;;;4971552;28;20046;-54
2022/05/27 12:37:50;;;;;;;0.10;0.03;;;26.90;41.70;;;;;;4971263;28;20518;-49
2022/05/27 12:40:32;;;;;;;0.13;0.10;;;26.80;41.60;;;;;;4969256;28;20159;-49
2022/05/27 12:43:02;;;;;;;0.20;0.10;;;26.90;41.70;;;;;;4968744;28;20094;-53
2022/05/27 12:45:47;;;;;;;0.00;0.00;;;26.90;41.70;;;;;;4968820;28;23625;-53
2022/05/27 12:48:28;;;;;;;0.13;0.10;;;26.90;41.60;;;;;;4946225;28;20045;-51
2022/05/27 12:50:59;;;;;;;0.55;0.10;;;26.90;41.60;;;;;;4969642;28;20050;-52
2022/05/27 12:53:43;;;;;;;0.22;0.22;;;26.90;41.60;;;;;;4969317;28;20118;-50
2022/05/27 13:02:53;;;;;;;0.20;0.10;;;27.00;41.60;;;;;;4871850;29;20049;-50
2022/05/27 13:05:23;;;;;;;0.03;0.00;;;27.00;41.70;;;;;;4872100;29;20520;-54
2022/05/27 13:07:53;;;;;;;0.15;0.10;;;27.10;41.70;;;;;;4873478;29;20060;-51
2022/05/27 13:10:53;;;;;;;0.85;0.10;;;27.10;41.60;;;;;;4871596;29;20045;-51
2022/05/27 13:13:29;;;;;;;0.17;0.10;;;27.10;41.50;;;;;;4871658;29;20049;-52
2022/05/27 13:16:24;;;;;;;0.47;0.00;;;27.10;41.50;;;;;;4871207;29;20136;-50
2022/05/27 13:18:59;;;;;;;0.05;0.05;;;27.10;41.50;;;;;;4871445;29;20045;-49
2022/05/27 13:21:40;;;;;;;0.00;0.00;;;27.10;41.50;;;;;;4871353;29;20080;-50
2022/05/27 13:24:29;;;;;;;0.00;0.00;;;27.20;41.50;;;;;;4871694;29;20144;-52
2022/05/27 13:27:00;;;;;;;0.30;0.10;;;27.20;41.50;;;;;;4866114;29;20045;-50
2022/05/27 13:29:33;;;;;;;0.22;0.00;;;27.30;41.50;;;;;;4871451;29;20095;-52
2022/05/27 13:32:04;;;;;;;0.40;0.10;;;27.30;41.50;;;;;;4872967;29;20422;-48
2022/05/27 13:34:43;;;;;;;0.00;0.00;;;27.40;41.50;;;;;;4871362;29;20049;-50
2022/05/27 13:37:30;;;;;;;0.20;0.10;;;27.40;41.40;;;;;;4879962;29;20640;-50
2022/05/27 13:40:03;;;;;;;0.65;0.00;;;27.40;41.40;;;;;;4957915;28;20047;-50
2022/05/27 13:42:34;;;;;;;0.03;0.03;;;27.50;41.40;;;;;;4968194;28;20545;-48
2022/05/27 13:45:11;;;;;;;0.10;0.10;;;27.50;41.30;;;;;;4968597;28;20126;-49
2022/05/27 13:47:44;;;;;;;0.38;0.00;;;27.50;41.30;;;;;;4964382;28;20130;-53
2022/05/27 13:50:28;;;;;;;0.28;0.05;;;27.50;41.30;;;;;;4969713;28;20046;-53
2022/05/27 13:52:56;;;;;;;0.10;0.10;;;27.50;41.20;;;;;;4937576;28;20054;-49
2022/05/27 13:55:28;;;;;;;0.00;0.00;;;27.60;41.30;;;;;;4968834;28;20072;-53
2022/05/27 13:57:57;;;;;;;0.00;0.00;;;27.60;41.20;;;;;;4968648;28;20038;-53
2022/05/27 14:00:27;;;;;;;0.00;0.00;;;27.70;41.30;;;;;;4968547;28;20066;-51